メインページ
METAR-TAF:

METAR-TAF

空港 :

ニューヨーク / ラガーディア, ニューヨーク, アメリカ合衆国

ラガーディア空港

緯度: 40-46-45N, 経度: 073-52-48W, 海抜: 6m

現時点の気象観測

当レポートは15分前の10:51(UTC)に作成
の風 13kt、最大20ktの突風を伴う
気温 22°C
湿度 78%
気圧 1010 hPa
視程: 16.1km
高度2800ftの千切れ雲あり
高度25000ftの曇り

METAR: KLGA 201051Z 36013G20KT 10SM BKN028 OVC250 22/18 A2983 RMK AO2 SLP099 T02170183 $

時間: 07:06 (11:06 UTC)

予報

当レポートは2時間35分前の08:31(UTC)に作成
予報は20日の 09時(UTC)から 21日の 06時(UTC)まで有効
の風 11kt
視程: 10km
高度3500ftの曇り
20日の 09時(UTC)から 20日の 12時(UTC)まで一時的に
の風 14kt、最大22ktの突風を伴う
20日の 1200時(UTC)から
の風 14kt、最大22ktの突風を伴う
視程: 10km
高度3500ftの千切れ雲あり
20日の 1400時(UTC)から
の風 17kt、最大25ktの突風を伴う
視程: 10km
高度3500ftの千切れ雲あり
20日の 1700時(UTC)から
の風 17kt、最大25ktの突風を伴う
視程: 10km
高度3500ftの雲は散在している
高度25000ftの曇り
20日の 2100時(UTC)から
北/北西の風 14kt、最大21ktの突風を伴う
視程: 10km
高度3500ftの雲は散在している
高度25000ftの曇り

TAF: KLGA 200831Z 2009/2106 01011KT P6SM OVC035 TEMPO 2009/2012 01014G22KT FM201200 01014G22KT P6SM BKN035 FM201400 35017G25KT P6SM BKN035 FM201700 35017G25KT P6SM SCT035 OVC250 FM202100 34014G21KT P6SM SCT035 OVC250

4,000以上の空港の気象観測と天気予報(METAR報とTAF報)

利用可能な観測所は地図上に黄色い丸と赤い丸で示す。

丸の上にカーソルを重ねると観測所名を参照できる。

次にクリックすると気象観測と天気予報を参照できる。

マップの切り替え:黒色「×」印の緑ボタンをクリックして拡大、「-」印の緑ボタンをクリックして縮小、緑色の三角印をクリックして隣りの地図に切り替え


METAR-TAF: